MDT,Max TemperatureF,Mean TemperatureF,Min TemperatureF,Max Dew PointF,MeanDew PointF,Min DewpointF,Max Humidity, Mean Humidity, Min Humidity, Max Sea Level PressureIn, Mean Sea Level PressureIn, Min Sea Level PressureIn, Max VisibilityMiles, Mean VisibilityMiles, Min VisibilityMiles, Max Wind SpeedMPH, Mean Wind SpeedMPH, Max Gust SpeedMPH,PrecipitationIn, CloudCover, Events, WindDirDegrees
2013-9-1,87,68,49,52,46,41,77,50,23,30.07,30.03,29.98,10,10,10,15,7,25,0.00,0,,352
2013-9-2,95,73,50,56,52,47,89,58,26,30.04,29.95,29.87,10,10,10,16,8,21,0.00,0,,113
2013-9-3,93,79,65,60,58,55,73,53,32,29.89,29.86,29.84,10,10,10,18,9,24,0.00,0,,68
2013-9-4,93,81,68,63,61,59,76,55,33,30.00,29.96,29.89,10,10,10,16,10,28,0.00,0,,67
2013-9-5,98,83,68,65,62,58,84,56,28,30.10,29.96,29.86,10,10,10,18,7,25,0.00,0,Thunderstorm,83
2013-9-6,102,83,63,67,60,56,84,54,24,29.88,29.84,29.80,10,10,10,16,5,21,T,0,Rain,55
2013-9-7,97,84,70,68,63,59,84,57,29,29.98,29.89,29.83,10,10,10,18,9,24,T,1,Rain-Thunderstorm,113
2013-9-8,84,75,66,67,65,59,100,78,55,29.99,29.85,29.68,10,9,2,12,11,14,0.36,5,Rain-Thunderstorm,52
2013-9-9,81,72,63,65,59,53,93,68,42,29.88,29.78,29.66,10,10,10,20,9,25,0.02,1,Rain,290
2013-9-10,80,69,58,59,55,52,93,66,39,30.07,29.99,29.90,10,10,10,14,6,18,0.00,0,,282
2013-9-11,88,71,53,57,51,43,93,57,21,30.18,30.12,30.08,10,10,10,15,4,20,0.00,0,,327
2013-9-12,83,69,54,51,46,43,83,54,24,30.30,30.23,30.18,10,10,10,14,6,22,0.00,1,,90
2013-9-13,83,65,47,54,47,42,80,53,26,30.17,30.03,29.87,10,10,10,22,10,26,0.00,3,,148
2013-9-14,87,75,63,60,57,54,84,61,37,29.96,29.80,29.70,10,10,10,26,11,33,0.00,5,,2
2013-9-15,73,62,50,58,53,47,93,67,41,30.27,30.18,29.97,10,9,2,17,9,22,0.04,6,Rain,54
2013-9-16,77,62,47,52,50,45,93,67,40,30.25,30.09,29.93,10,10,10,26,14,33,0.00,1,,153
2013-9-17,92,74,55,59,55,51,93,60,26,29.91,29.72,29.55,10,10,10,13,6,17,0.00,0,,127
2013-9-18,95,78,61,56,52,45,78,49,20,29.72,29.57,29.48,10,10,10,26,10,36,0.00,0,,282
2013-9-19,67,55,43,48,41,37,71,53,34,30.12,29.97,29.75,10,10,10,31,16,39,0.00,1,,313
2013-9-20,76,58,39,40,34,30,85,52,19,30.14,30.05,29.95,10,10,10,15,7,20,0.00,0,,279
2013-9-21,94,67,39,50,39,29,76,43,10,29.95,29.72,29.55,10,10,10,22,8,30,0.00,0,,109
2013-9-22,98,78,58,55,51,44,64,41,17,29.54,29.46,29.38,10,10,10,32,12,41,T,1,Rain-Thunderstorm,196
2013-9-23,70,60,49,55,52,48,96,77,58,29.90,29.63,29.41,10,10,10,31,11,37,0.01,4,Rain,318
2013-9-24,80,63,46,52,43,34,100,61,21,30.01,29.92,29.78,10,7,0,17,9,24,0.00,1,Fog,217
2013-9-25,85,70,54,51,46,40,65,46,27,29.75,29.56,29.41,10,10,10,31,14,39,0.00,0,,138
2013-9-26,75,63,51,51,45,38,89,61,33,29.80,29.66,29.42,10,10,10,31,15,39,0.00,1,,335
2013-9-27,56,50,44,42,39,37,89,72,54,29.95,29.85,29.78,10,10,7,25,13,31,0.15,8,Rain,338
2013-9-28,71,55,38,41,36,30,92,58,23,29.94,29.91,29.88,10,10,10,26,9,35,0.00,1,,276
2013-9-29,84,62,39,39,35,31,85,50,15,29.90,29.70,29.57,10,10,10,29,9,36,0.00,0,,252
2013-9-30,91,68,45,46,38,33,71,43,14,29.76,29.57,29.41,10,10,10,46,13,56,0.00,0,,270